sensor_id;sensor_type;location;lat;lon;timestamp;P1;durP1;ratioP1;P2;durP2;ratioP2
6973;SDS011;3527;52.376;8.990;2022-08-21T00:01:48;10.07;;;5.67;;
6973;SDS011;3527;52.376;8.990;2022-08-21T00:04:35;10.10;;;5.80;;
6973;SDS011;3527;52.376;8.990;2022-08-21T00:07:33;9.60;;;5.97;;
6973;SDS011;3527;52.376;8.990;2022-08-21T00:10:21;8.73;;;5.73;;
6973;SDS011;3527;52.376;8.990;2022-08-21T00:13:09;6.90;;;6.10;;
6973;SDS011;3527;52.376;8.990;2022-08-21T00:15:57;8.10;;;5.37;;
6973;SDS011;3527;52.376;8.990;2022-08-21T00:18:45;7.93;;;5.67;;
6973;SDS011;3527;52.376;8.990;2022-08-21T00:21:33;8.57;;;5.57;;
6973;SDS011;3527;52.376;8.990;2022-08-21T00:24:21;6.50;;;5.17;;
6973;SDS011;3527;52.376;8.990;2022-08-21T00:27:10;8.87;;;5.70;;
6973;SDS011;3527;52.376;8.990;2022-08-21T00:29:57;6.50;;;4.93;;
6973;SDS011;3527;52.376;8.990;2022-08-21T00:32:44;9.67;;;6.70;;
6973;SDS011;3527;52.376;8.990;2022-08-21T00:35:33;8.50;;;5.87;;
6973;SDS011;3527;52.376;8.990;2022-08-21T00:38:22;10.87;;;6.37;;
6973;SDS011;3527;52.376;8.990;2022-08-21T00:41:10;9.07;;;5.67;;
6973;SDS011;3527;52.376;8.990;2022-08-21T00:44:17;9.60;;;5.97;;
6973;SDS011;3527;52.376;8.990;2022-08-21T00:47:04;11.10;;;6.03;;
6973;SDS011;3527;52.376;8.990;2022-08-21T00:49:52;8.87;;;6.07;;
6973;SDS011;3527;52.376;8.990;2022-08-21T00:52:39;8.40;;;5.03;;
6973;SDS011;3527;52.376;8.990;2022-08-21T00:55:28;6.13;;;4.57;;
6973;SDS011;3527;52.376;8.990;2022-08-21T00:58:18;8.20;;;4.70;;
6973;SDS011;3527;52.376;8.990;2022-08-21T01:01:06;8.33;;;5.10;;
6973;SDS011;3527;52.376;8.990;2022-08-21T01:03:54;8.13;;;4.40;;
6973;SDS011;3527;52.376;8.990;2022-08-21T01:06:42;8.53;;;4.77;;
6973;SDS011;3527;52.376;8.990;2022-08-21T01:09:30;6.67;;;4.57;;
6973;SDS011;3527;52.376;8.990;2022-08-21T01:12:17;6.50;;;4.33;;
6973;SDS011;3527;52.376;8.990;2022-08-21T01:15:05;9.60;;;4.57;;
6973;SDS011;3527;52.376;8.990;2022-08-21T01:17:54;7.03;;;4.33;;
6973;SDS011;3527;52.376;8.990;2022-08-21T01:20:43;9.97;;;4.83;;
6973;SDS011;3527;52.376;8.990;2022-08-21T01:23:43;8.23;;;4.60;;
6973;SDS011;3527;52.376;8.990;2022-08-21T01:26:33;5.00;;;4.37;;
6973;SDS011;3527;52.376;8.990;2022-08-21T01:32:40;7.40;;;4.30;;
6973;SDS011;3527;52.376;8.990;2022-08-21T01:35:27;5.80;;;4.43;;
6973;SDS011;3527;52.376;8.990;2022-08-21T01:38:15;8.27;;;5.07;;
6973;SDS011;3527;52.376;8.990;2022-08-21T01:41:02;5.53;;;4.60;;
6973;SDS011;3527;52.376;8.990;2022-08-21T01:43:49;6.37;;;4.93;;
6973;SDS011;3527;52.376;8.990;2022-08-21T01:46:37;8.17;;;4.97;;
6973;SDS011;3527;52.376;8.990;2022-08-21T01:49:25;5.83;;;4.60;;
6973;SDS011;3527;52.376;8.990;2022-08-21T01:52:12;7.77;;;4.53;;
6973;SDS011;3527;52.376;8.990;2022-08-21T01:54:59;7.43;;;5.27;;
6973;SDS011;3527;52.376;8.990;2022-08-21T01:57:47;8.40;;;5.20;;
6973;SDS011;3527;52.376;8.990;2022-08-21T02:00:34;10.17;;;5.47;;
6973;SDS011;3527;52.376;8.990;2022-08-21T02:03:22;9.53;;;4.83;;
6973;SDS011;3527;52.376;8.990;2022-08-21T02:06:20;10.40;;;5.13;;
6973;SDS011;3527;52.376;8.990;2022-08-21T02:09:08;6.00;;;4.50;;
6973;SDS011;3527;52.376;8.990;2022-08-21T02:11:57;7.13;;;5.03;;
6973;SDS011;3527;52.376;8.990;2022-08-21T02:14:45;9.77;;;5.20;;
6973;SDS011;3527;52.376;8.990;2022-08-21T02:17:39;7.33;;;4.60;;
6973;SDS011;3527;52.376;8.990;2022-08-21T02:20:29;5.97;;;4.37;;
6973;SDS011;3527;52.376;8.990;2022-08-21T02:23:24;7.23;;;4.20;;
6973;SDS011;3527;52.376;8.990;2022-08-21T02:26:13;6.63;;;4.60;;
6973;SDS011;3527;52.376;8.990;2022-08-21T02:29:00;8.93;;;4.63;;
6973;SDS011;3527;52.376;8.990;2022-08-21T02:31:48;8.00;;;4.33;;
6973;SDS011;3527;52.376;8.990;2022-08-21T02:34:35;6.90;;;4.30;;
6973;SDS011;3527;52.376;8.990;2022-08-21T02:37:23;6.20;;;3.70;;
6973;SDS011;3527;52.376;8.990;2022-08-21T02:40:11;6.40;;;4.10;;
6973;SDS011;3527;52.376;8.990;2022-08-21T02:42:59;5.57;;;4.17;;
6973;SDS011;3527;52.376;8.990;2022-08-21T02:45:48;6.13;;;3.90;;
6973;SDS011;3527;52.376;8.990;2022-08-21T02:48:37;7.70;;;4.70;;
6973;SDS011;3527;52.376;8.990;2022-08-21T02:51:24;8.53;;;4.60;;
6973;SDS011;3527;52.376;8.990;2022-08-21T02:54:12;6.67;;;4.27;;
6973;SDS011;3527;52.376;8.990;2022-08-21T02:56:59;4.77;;;3.73;;
6973;SDS011;3527;52.376;8.990;2022-08-21T02:59:47;6.10;;;4.10;;
6973;SDS011;3527;52.376;8.990;2022-08-21T03:02:34;6.50;;;3.50;;
6973;SDS011;3527;52.376;8.990;2022-08-21T03:05:22;8.97;;;3.83;;
6973;SDS011;3527;52.376;8.990;2022-08-21T03:08:11;4.90;;;3.83;;
6973;SDS011;3527;52.376;8.990;2022-08-21T03:11:00;5.37;;;3.83;;
6973;SDS011;3527;52.376;8.990;2022-08-21T03:13:48;8.80;;;4.77;;
6973;SDS011;3527;52.376;8.990;2022-08-21T03:16:35;6.60;;;4.53;;
6973;SDS011;3527;52.376;8.990;2022-08-21T03:19:23;6.50;;;4.70;;
6973;SDS011;3527;52.376;8.990;2022-08-21T03:22:10;5.33;;;4.03;;
6973;SDS011;3527;52.376;8.990;2022-08-21T03:24:58;9.37;;;5.00;;
6973;SDS011;3527;52.376;8.990;2022-08-21T03:27:50;6.90;;;4.27;;
6973;SDS011;3527;52.376;8.990;2022-08-21T03:30:44;13.23;;;4.57;;
6973;SDS011;3527;52.376;8.990;2022-08-21T03:33:34;5.70;;;4.37;;
6973;SDS011;3527;52.376;8.990;2022-08-21T03:36:22;7.23;;;4.60;;
6973;SDS011;3527;52.376;8.990;2022-08-21T03:39:09;8.47;;;4.00;;
6973;SDS011;3527;52.376;8.990;2022-08-21T03:41:57;8.70;;;4.27;;
6973;SDS011;3527;52.376;8.990;2022-08-21T03:44:44;6.33;;;4.07;;
6973;SDS011;3527;52.376;8.990;2022-08-21T03:47:31;4.97;;;3.63;;
6973;SDS011;3527;52.376;8.990;2022-08-21T03:50:19;5.73;;;3.93;;
6973;SDS011;3527;52.376;8.990;2022-08-21T03:53:07;6.77;;;4.40;;
6973;SDS011;3527;52.376;8.990;2022-08-21T03:56:06;5.97;;;4.27;;
6973;SDS011;3527;52.376;8.990;2022-08-21T03:58:53;5.50;;;4.10;;
6973;SDS011;3527;52.376;8.990;2022-08-21T04:01:50;7.83;;;4.50;;
6973;SDS011;3527;52.376;8.990;2022-08-21T04:04:45;10.07;;;5.37;;
6973;SDS011;3527;52.376;8.990;2022-08-21T04:07:32;7.13;;;4.97;;
6973;SDS011;3527;52.376;8.990;2022-08-21T04:10:20;8.60;;;5.20;;
6973;SDS011;3527;52.376;8.990;2022-08-21T04:13:21;7.43;;;4.83;;
6973;SDS011;3527;52.376;8.990;2022-08-21T04:16:09;10.27;;;5.50;;
6973;SDS011;3527;52.376;8.990;2022-08-21T04:18:56;9.63;;;4.80;;
6973;SDS011;3527;52.376;8.990;2022-08-21T04:21:44;11.20;;;6.03;;
6973;SDS011;3527;52.376;8.990;2022-08-21T04:24:31;11.50;;;5.87;;
6973;SDS011;3527;52.376;8.990;2022-08-21T04:27:19;8.70;;;5.37;;
6973;SDS011;3527;52.376;8.990;2022-08-21T04:30:07;8.43;;;6.53;;
6973;SDS011;3527;52.376;8.990;2022-08-21T04:32:56;8.00;;;5.50;;
6973;SDS011;3527;52.376;8.990;2022-08-21T04:35:44;9.10;;;5.90;;
6973;SDS011;3527;52.376;8.990;2022-08-21T04:38:32;9.17;;;5.83;;
6973;SDS011;3527;52.376;8.990;2022-08-21T04:41:23;9.00;;;6.67;;
6973;SDS011;3527;52.376;8.990;2022-08-21T04:44:13;11.00;;;6.73;;
6973;SDS011;3527;52.376;8.990;2022-08-21T04:47:01;10.03;;;6.70;;
6973;SDS011;3527;52.376;8.990;2022-08-21T04:49:50;10.43;;;6.07;;
6973;SDS011;3527;52.376;8.990;2022-08-21T04:52:37;14.63;;;6.13;;
6973;SDS011;3527;52.376;8.990;2022-08-21T04:55:25;12.13;;;6.03;;
6973;SDS011;3527;52.376;8.990;2022-08-21T04:58:16;13.47;;;6.47;;
6973;SDS011;3527;52.376;8.990;2022-08-21T05:01:07;9.93;;;5.93;;
6973;SDS011;3527;52.376;8.990;2022-08-21T05:04:00;8.47;;;5.70;;
6973;SDS011;3527;52.376;8.990;2022-08-21T05:06:54;12.00;;;5.80;;
6973;SDS011;3527;52.376;8.990;2022-08-21T05:09:47;9.37;;;4.97;;
6973;SDS011;3527;52.376;8.990;2022-08-21T05:12:42;11.87;;;6.30;;
6973;SDS011;3527;52.376;8.990;2022-08-21T05:15:34;11.23;;;6.10;;
6973;SDS011;3527;52.376;8.990;2022-08-21T05:18:35;9.63;;;5.83;;
6973;SDS011;3527;52.376;8.990;2022-08-21T05:21:22;8.00;;;5.47;;
6973;SDS011;3527;52.376;8.990;2022-08-21T05:24:10;10.30;;;5.73;;
6973;SDS011;3527;52.376;8.990;2022-08-21T05:27:02;14.60;;;6.90;;
6973;SDS011;3527;52.376;8.990;2022-08-21T05:29:53;11.20;;;5.83;;
6973;SDS011;3527;52.376;8.990;2022-08-21T05:32:41;10.30;;;5.80;;
6973;SDS011;3527;52.376;8.990;2022-08-21T05:35:29;13.00;;;6.53;;
6973;SDS011;3527;52.376;8.990;2022-08-21T05:38:17;9.53;;;6.17;;
6973;SDS011;3527;52.376;8.990;2022-08-21T05:41:05;15.40;;;7.53;;
6973;SDS011;3527;52.376;8.990;2022-08-21T05:43:54;12.07;;;7.13;;
6973;SDS011;3527;52.376;8.990;2022-08-21T05:46:41;9.77;;;7.10;;
6973;SDS011;3527;52.376;8.990;2022-08-21T05:49:29;10.90;;;6.97;;
6973;SDS011;3527;52.376;8.990;2022-08-21T05:52:20;9.60;;;6.73;;
6973;SDS011;3527;52.376;8.990;2022-08-21T05:55:08;13.00;;;8.00;;
6973;SDS011;3527;52.376;8.990;2022-08-21T05:57:58;15.60;;;8.23;;
6973;SDS011;3527;52.376;8.990;2022-08-21T06:00:47;13.53;;;7.33;;
6973;SDS011;3527;52.376;8.990;2022-08-21T06:03:36;15.30;;;8.10;;
6973;SDS011;3527;52.376;8.990;2022-08-21T06:06:26;13.53;;;8.37;;
6973;SDS011;3527;52.376;8.990;2022-08-21T06:09:14;12.80;;;7.37;;
6973;SDS011;3527;52.376;8.990;2022-08-21T06:12:05;10.20;;;8.07;;
6973;SDS011;3527;52.376;8.990;2022-08-21T06:14:53;12.53;;;8.73;;
6973;SDS011;3527;52.376;8.990;2022-08-21T06:17:40;12.53;;;7.37;;
6973;SDS011;3527;52.376;8.990;2022-08-21T06:20:27;14.50;;;8.10;;
6973;SDS011;3527;52.376;8.990;2022-08-21T06:23:14;13.90;;;7.60;;
6973;SDS011;3527;52.376;8.990;2022-08-21T06:26:02;9.63;;;7.37;;
6973;SDS011;3527;52.376;8.990;2022-08-21T06:28:51;12.90;;;7.50;;
6973;SDS011;3527;52.376;8.990;2022-08-21T06:31:38;10.90;;;7.43;;
6973;SDS011;3527;52.376;8.990;2022-08-21T06:34:26;10.83;;;8.10;;
6973;SDS011;3527;52.376;8.990;2022-08-21T06:37:13;15.43;;;7.13;;
6973;SDS011;3527;52.376;8.990;2022-08-21T06:40:01;12.63;;;7.60;;
6973;SDS011;3527;52.376;8.990;2022-08-21T06:42:50;13.27;;;7.40;;
6973;SDS011;3527;52.376;8.990;2022-08-21T06:45:37;10.63;;;6.37;;
6973;SDS011;3527;52.376;8.990;2022-08-21T06:48:24;11.37;;;6.43;;
6973;SDS011;3527;52.376;8.990;2022-08-21T06:51:11;10.07;;;5.53;;
6973;SDS011;3527;52.376;8.990;2022-08-21T06:53:59;11.63;;;5.80;;
6973;SDS011;3527;52.376;8.990;2022-08-21T06:56:46;11.70;;;4.53;;
6973;SDS011;3527;52.376;8.990;2022-08-21T06:59:33;7.90;;;4.07;;
6973;SDS011;3527;52.376;8.990;2022-08-21T07:02:21;7.33;;;4.10;;
6973;SDS011;3527;52.376;8.990;2022-08-21T07:05:08;8.33;;;3.87;;
6973;SDS011;3527;52.376;8.990;2022-08-21T07:08:04;6.97;;;4.03;;
6973;SDS011;3527;52.376;8.990;2022-08-21T07:10:51;5.93;;;3.63;;
6973;SDS011;3527;52.376;8.990;2022-08-21T07:13:42;7.53;;;3.57;;
6973;SDS011;3527;52.376;8.990;2022-08-21T07:16:31;8.17;;;3.60;;
6973;SDS011;3527;52.376;8.990;2022-08-21T07:19:18;6.53;;;3.00;;
6973;SDS011;3527;52.376;8.990;2022-08-21T07:22:06;6.73;;;3.13;;
6973;SDS011;3527;52.376;8.990;2022-08-21T07:24:54;4.60;;;2.57;;
6973;SDS011;3527;52.376;8.990;2022-08-21T07:27:45;6.00;;;2.40;;
6973;SDS011;3527;52.376;8.990;2022-08-21T07:30:35;5.27;;;2.53;;
6973;SDS011;3527;52.376;8.990;2022-08-21T07:33:23;7.23;;;2.67;;
6973;SDS011;3527;52.376;8.990;2022-08-21T07:36:11;4.43;;;2.23;;
6973;SDS011;3527;52.376;8.990;2022-08-21T07:38:59;5.97;;;2.20;;
6973;SDS011;3527;52.376;8.990;2022-08-21T07:41:47;6.30;;;2.40;;
6973;SDS011;3527;52.376;8.990;2022-08-21T07:44:36;7.60;;;2.80;;
6973;SDS011;3527;52.376;8.990;2022-08-21T07:47:24;4.57;;;2.27;;
6973;SDS011;3527;52.376;8.990;2022-08-21T07:50:28;6.10;;;2.23;;
6973;SDS011;3527;52.376;8.990;2022-08-21T07:53:15;8.73;;;2.53;;
6973;SDS011;3527;52.376;8.990;2022-08-21T07:56:04;7.37;;;2.47;;
6973;SDS011;3527;52.376;8.990;2022-08-21T07:58:52;9.13;;;2.80;;
6973;SDS011;3527;52.376;8.990;2022-08-21T08:01:39;6.53;;;2.43;;
6973;SDS011;3527;52.376;8.990;2022-08-21T08:04:27;4.50;;;2.40;;
6973;SDS011;3527;52.376;8.990;2022-08-21T08:07:14;8.03;;;2.70;;
6973;SDS011;3527;52.376;8.990;2022-08-21T08:10:02;7.43;;;3.13;;
6973;SDS011;3527;52.376;8.990;2022-08-21T08:12:52;6.77;;;2.60;;
6973;SDS011;3527;52.376;8.990;2022-08-21T08:15:41;5.70;;;2.83;;
6973;SDS011;3527;52.376;8.990;2022-08-21T08:18:28;8.13;;;3.20;;
6973;SDS011;3527;52.376;8.990;2022-08-21T08:21:17;6.10;;;2.83;;
6973;SDS011;3527;52.376;8.990;2022-08-21T08:24:07;5.73;;;2.97;;
6973;SDS011;3527;52.376;8.990;2022-08-21T08:27:05;7.80;;;2.77;;
6973;SDS011;3527;52.376;8.990;2022-08-21T08:29:52;7.20;;;2.70;;
6973;SDS011;3527;52.376;8.990;2022-08-21T08:32:40;6.87;;;2.63;;
6973;SDS011;3527;52.376;8.990;2022-08-21T08:35:28;9.43;;;3.47;;
6973;SDS011;3527;52.376;8.990;2022-08-21T08:38:20;7.97;;;2.63;;
6973;SDS011;3527;52.376;8.990;2022-08-21T08:41:12;4.17;;;2.30;;
6973;SDS011;3527;52.376;8.990;2022-08-21T08:44:05;8.80;;;2.60;;
6973;SDS011;3527;52.376;8.990;2022-08-21T08:46:53;5.25;;;2.50;;
6973;SDS011;3527;52.376;8.990;2022-08-21T08:49:48;6.07;;;2.43;;
6973;SDS011;3527;52.376;8.990;2022-08-21T08:52:47;8.30;;;2.50;;
6973;SDS011;3527;52.376;8.990;2022-08-21T08:55:39;7.27;;;2.57;;
6973;SDS011;3527;52.376;8.990;2022-08-21T08:58:29;9.67;;;2.60;;
6973;SDS011;3527;52.376;8.990;2022-08-21T09:01:19;6.50;;;2.50;;
6973;SDS011;3527;52.376;8.990;2022-08-21T09:04:07;4.17;;;2.00;;
6973;SDS011;3527;52.376;8.990;2022-08-21T09:07:45;5.97;;;2.35;;
6973;SDS011;3527;52.376;8.990;2022-08-21T09:10:10;9.68;;;2.53;;
6973;SDS011;3527;52.376;8.990;2022-08-21T09:26:11;5.00;;;2.25;;
6973;SDS011;3527;52.376;8.990;2022-08-21T09:29:00;6.20;;;2.08;;
6973;SDS011;3527;52.376;8.990;2022-08-21T09:31:48;7.55;;;2.65;;
6973;SDS011;3527;52.376;8.990;2022-08-21T09:34:35;4.15;;;2.22;;
6973;SDS011;3527;52.376;8.990;2022-08-21T09:37:23;8.50;;;2.10;;
6973;SDS011;3527;52.376;8.990;2022-08-21T09:40:31;6.55;;;2.45;;
6973;SDS011;3527;52.376;8.990;2022-08-21T09:43:30;4.35;;;2.25;;
6973;SDS011;3527;52.376;8.990;2022-08-21T09:46:22;8.70;;;2.55;;
6973;SDS011;3527;52.376;8.990;2022-08-21T09:49:11;5.47;;;2.08;;
6973;SDS011;3527;52.376;8.990;2022-08-21T09:52:19;4.95;;;2.60;;
6973;SDS011;3527;52.376;8.990;2022-08-21T09:55:09;7.90;;;2.72;;
6973;SDS011;3527;52.376;8.990;2022-08-21T09:58:29;7.53;;;2.30;;
6973;SDS011;3527;52.376;8.990;2022-08-21T10:01:19;4.57;;;2.17;;
6973;SDS011;3527;52.376;8.990;2022-08-21T10:04:12;5.60;;;2.50;;
6973;SDS011;3527;52.376;8.990;2022-08-21T10:07:10;3.70;;;2.20;;
6973;SDS011;3527;52.376;8.990;2022-08-21T10:10:00;5.57;;;2.28;;
6973;SDS011;3527;52.376;8.990;2022-08-21T10:21:57;8.52;;;2.88;;
6973;SDS011;3527;52.376;8.990;2022-08-21T10:24:52;5.57;;;2.22;;
6973;SDS011;3527;52.376;8.990;2022-08-21T10:30:51;5.38;;;2.13;;
6973;SDS011;3527;52.376;8.990;2022-08-21T10:43:22;5.35;;;2.30;;
6973;SDS011;3527;52.376;8.990;2022-08-21T10:46:47;5.85;;;2.22;;
6973;SDS011;3527;52.376;8.990;2022-08-21T10:56:17;3.00;;;1.85;;
6973;SDS011;3527;52.376;8.990;2022-08-21T11:11:38;3.13;;;1.70;;
6973;SDS011;3527;52.376;8.990;2022-08-21T11:14:58;3.70;;;1.98;;
6973;SDS011;3527;52.376;8.990;2022-08-21T11:18:15;5.88;;;1.85;;
6973;SDS011;3527;52.376;8.990;2022-08-21T11:30:06;5.13;;;2.20;;
6973;SDS011;3527;52.376;8.990;2022-08-21T11:35:48;4.10;;;1.80;;
6973;SDS011;3527;52.376;8.990;2022-08-21T11:38:42;7.15;;;2.00;;
6973;SDS011;3527;52.376;8.990;2022-08-21T11:41:40;5.22;;;2.30;;
6973;SDS011;3527;52.376;8.990;2022-08-21T11:44:49;5.43;;;2.53;;
6973;SDS011;3527;52.376;8.990;2022-08-21T11:48:00;6.47;;;2.53;;
6973;SDS011;3527;52.376;8.990;2022-08-21T11:51:04;6.57;;;2.50;;
6973;SDS011;3527;52.376;8.990;2022-08-21T11:57:25;4.57;;;2.20;;
6973;SDS011;3527;52.376;8.990;2022-08-21T12:00:29;7.85;;;2.50;;
6973;SDS011;3527;52.376;8.990;2022-08-21T12:06:35;4.55;;;2.10;;
6973;SDS011;3527;52.376;8.990;2022-08-21T12:12:21;3.45;;;2.03;;
6973;SDS011;3527;52.376;8.990;2022-08-21T12:18:23;4.32;;;2.05;;
6973;SDS011;3527;52.376;8.990;2022-08-21T12:27:12;3.85;;;2.30;;
6973;SDS011;3527;52.376;8.990;2022-08-21T12:30:04;4.35;;;2.20;;
6973;SDS011;3527;52.376;8.990;2022-08-21T12:33:25;4.88;;;2.33;;
6973;SDS011;3527;52.376;8.990;2022-08-21T12:36:21;6.00;;;2.53;;
6973;SDS011;3527;52.376;8.990;2022-08-21T12:39:32;5.22;;;2.63;;
6973;SDS011;3527;52.376;8.990;2022-08-21T12:42:24;6.07;;;2.63;;
6973;SDS011;3527;52.376;8.990;2022-08-21T12:45:45;5.20;;;2.63;;
6973;SDS011;3527;52.376;8.990;2022-08-21T12:52:21;5.85;;;3.05;;
6973;SDS011;3527;52.376;8.990;2022-08-21T12:55:12;4.60;;;2.50;;
6973;SDS011;3527;52.376;8.990;2022-08-21T12:58:04;4.65;;;2.40;;
6973;SDS011;3527;52.376;8.990;2022-08-21T13:00:53;5.22;;;2.22;;
6973;SDS011;3527;52.376;8.990;2022-08-21T13:03:43;4.40;;;2.30;;
6973;SDS011;3527;52.376;8.990;2022-08-21T13:06:32;3.83;;;2.25;;
6973;SDS011;3527;52.376;8.990;2022-08-21T13:09:29;5.45;;;2.50;;
6973;SDS011;3527;52.376;8.990;2022-08-21T13:12:17;4.57;;;2.47;;
6973;SDS011;3527;52.376;8.990;2022-08-21T13:15:08;5.80;;;3.10;;
6973;SDS011;3527;52.376;8.990;2022-08-21T13:17:56;6.60;;;2.58;;
6973;SDS011;3527;52.376;8.990;2022-08-21T13:20:48;6.15;;;2.38;;
6973;SDS011;3527;52.376;8.990;2022-08-21T13:23:37;4.60;;;2.60;;
6973;SDS011;3527;52.376;8.990;2022-08-21T13:26:25;4.47;;;2.50;;
6973;SDS011;3527;52.376;8.990;2022-08-21T13:29:13;4.88;;;2.75;;
6973;SDS011;3527;52.376;8.990;2022-08-21T13:32:13;6.97;;;3.13;;
6973;SDS011;3527;52.376;8.990;2022-08-21T13:35:11;4.75;;;2.60;;
6973;SDS011;3527;52.376;8.990;2022-08-21T13:38:02;4.18;;;2.80;;
6973;SDS011;3527;52.376;8.990;2022-08-21T13:40:55;6.43;;;2.80;;
6973;SDS011;3527;52.376;8.990;2022-08-21T13:43:46;4.25;;;2.75;;
6973;SDS011;3527;52.376;8.990;2022-08-21T13:46:36;5.93;;;2.50;;
6973;SDS011;3527;52.376;8.990;2022-08-21T13:49:46;4.70;;;2.30;;
6973;SDS011;3527;52.376;8.990;2022-08-21T13:52:33;8.32;;;2.90;;
6973;SDS011;3527;52.376;8.990;2022-08-21T13:55:36;5.40;;;3.13;;
6973;SDS011;3527;52.376;8.990;2022-08-21T13:58:29;6.85;;;2.83;;
6973;SDS011;3527;52.376;8.990;2022-08-21T14:01:25;6.80;;;2.80;;
6973;SDS011;3527;52.376;8.990;2022-08-21T14:04:32;5.40;;;2.60;;
6973;SDS011;3527;52.376;8.990;2022-08-21T14:07:23;3.75;;;2.55;;
6973;SDS011;3527;52.376;8.990;2022-08-21T14:10:19;4.57;;;2.70;;
6973;SDS011;3527;52.376;8.990;2022-08-21T14:13:14;6.35;;;2.70;;
6973;SDS011;3527;52.376;8.990;2022-08-21T14:16:24;6.10;;;2.92;;
6973;SDS011;3527;52.376;8.990;2022-08-21T14:19:23;5.65;;;3.15;;
6973;SDS011;3527;52.376;8.990;2022-08-21T14:28:30;4.55;;;2.30;;
6973;SDS011;3527;52.376;8.990;2022-08-21T14:31:20;4.75;;;2.97;;
6973;SDS011;3527;52.376;8.990;2022-08-21T14:34:09;4.53;;;2.67;;
6973;SDS011;3527;52.376;8.990;2022-08-21T14:37:05;5.35;;;2.72;;
6973;SDS011;3527;52.376;8.990;2022-08-21T14:39:52;6.22;;;2.90;;
6973;SDS011;3527;52.376;8.990;2022-08-21T14:42:40;4.45;;;2.80;;
6973;SDS011;3527;52.376;8.990;2022-08-21T14:45:29;6.45;;;2.90;;
6973;SDS011;3527;52.376;8.990;2022-08-21T14:48:17;5.03;;;2.63;;
6973;SDS011;3527;52.376;8.990;2022-08-21T14:51:04;5.78;;;2.88;;
6973;SDS011;3527;52.376;8.990;2022-08-21T14:53:51;4.05;;;2.67;;
6973;SDS011;3527;52.376;8.990;2022-08-21T14:56:38;4.35;;;2.63;;
6973;SDS011;3527;52.376;8.990;2022-08-21T14:59:25;4.22;;;2.30;;
6973;SDS011;3527;52.376;8.990;2022-08-21T15:02:13;4.80;;;2.95;;
6973;SDS011;3527;52.376;8.990;2022-08-21T15:05:00;9.80;;;3.25;;
6973;SDS011;3527;52.376;8.990;2022-08-21T15:08:01;5.35;;;2.80;;
6973;SDS011;3527;52.376;8.990;2022-08-21T15:10:48;6.40;;;3.10;;
6973;SDS011;3527;52.376;8.990;2022-08-21T15:14:06;8.32;;;2.90;;
6973;SDS011;3527;52.376;8.990;2022-08-21T15:16:57;6.03;;;2.67;;
6973;SDS011;3527;52.376;8.990;2022-08-21T15:19:44;3.78;;;2.53;;
6973;SDS011;3527;52.376;8.990;2022-08-21T15:22:31;6.13;;;2.67;;
6973;SDS011;3527;52.376;8.990;2022-08-21T15:25:18;5.25;;;2.78;;
6973;SDS011;3527;52.376;8.990;2022-08-21T15:28:06;6.15;;;2.53;;
6973;SDS011;3527;52.376;8.990;2022-08-21T15:30:56;6.95;;;2.63;;
6973;SDS011;3527;52.376;8.990;2022-08-21T15:33:44;5.07;;;2.05;;
6973;SDS011;3527;52.376;8.990;2022-08-21T15:36:32;5.25;;;2.10;;
6973;SDS011;3527;52.376;8.990;2022-08-21T15:39:19;5.60;;;2.00;;
6973;SDS011;3527;52.376;8.990;2022-08-21T15:43:05;3.88;;;2.22;;
6973;SDS011;3527;52.376;8.990;2022-08-21T15:46:55;4.70;;;2.40;;
6973;SDS011;3527;52.376;8.990;2022-08-21T15:49:43;4.50;;;2.00;;
6973;SDS011;3527;52.376;8.990;2022-08-21T15:52:34;3.83;;;1.90;;
6973;SDS011;3527;52.376;8.990;2022-08-21T15:55:22;3.50;;;2.20;;
6973;SDS011;3527;52.376;8.990;2022-08-21T15:58:21;4.15;;;2.13;;
6973;SDS011;3527;52.376;8.990;2022-08-21T16:01:08;3.67;;;2.20;;
6973;SDS011;3527;52.376;8.990;2022-08-21T16:03:56;4.72;;;1.95;;
6973;SDS011;3527;52.376;8.990;2022-08-21T16:06:43;4.45;;;2.13;;
6973;SDS011;3527;52.376;8.990;2022-08-21T16:09:41;4.45;;;2.28;;
6973;SDS011;3527;52.376;8.990;2022-08-21T16:12:29;8.75;;;1.75;;
6973;SDS011;3527;52.376;8.990;2022-08-21T16:15:19;5.40;;;1.83;;
6973;SDS011;3527;52.376;8.990;2022-08-21T16:18:06;2.20;;;1.30;;
6973;SDS011;3527;52.376;8.990;2022-08-21T16:20:54;3.28;;;1.58;;
6973;SDS011;3527;52.376;8.990;2022-08-21T16:23:41;3.63;;;1.50;;
6973;SDS011;3527;52.376;8.990;2022-08-21T16:26:33;4.40;;;1.63;;
6973;SDS011;3527;52.376;8.990;2022-08-21T16:29:20;2.72;;;1.50;;
6973;SDS011;3527;52.376;8.990;2022-08-21T16:32:08;3.60;;;1.60;;
6973;SDS011;3527;52.376;8.990;2022-08-21T16:34:56;2.28;;;1.33;;
6973;SDS011;3527;52.376;8.990;2022-08-21T16:37:46;4.38;;;1.83;;
6973;SDS011;3527;52.376;8.990;2022-08-21T16:40:39;2.38;;;1.38;;
6973;SDS011;3527;52.376;8.990;2022-08-21T16:43:27;6.50;;;1.60;;
6973;SDS011;3527;52.376;8.990;2022-08-21T16:46:15;3.10;;;1.60;;
6973;SDS011;3527;52.376;8.990;2022-08-21T16:49:05;2.15;;;1.33;;
6973;SDS011;3527;52.376;8.990;2022-08-21T16:52:05;5.32;;;1.80;;
6973;SDS011;3527;52.376;8.990;2022-08-21T16:54:53;3.92;;;1.80;;
6973;SDS011;3527;52.376;8.990;2022-08-21T16:57:46;4.25;;;1.70;;
6973;SDS011;3527;52.376;8.990;2022-08-21T17:00:34;2.30;;;1.52;;
6973;SDS011;3527;52.376;8.990;2022-08-21T17:03:24;3.08;;;1.50;;
6973;SDS011;3527;52.376;8.990;2022-08-21T17:06:18;3.38;;;1.92;;
6973;SDS011;3527;52.376;8.990;2022-08-21T17:09:07;4.03;;;1.77;;
6973;SDS011;3527;52.376;8.990;2022-08-21T17:11:54;4.15;;;1.67;;
6973;SDS011;3527;52.376;8.990;2022-08-21T17:14:42;5.32;;;1.60;;
6973;SDS011;3527;52.376;8.990;2022-08-21T17:17:29;2.35;;;1.40;;
6973;SDS011;3527;52.376;8.990;2022-08-21T17:20:17;1.98;;;1.33;;
6973;SDS011;3527;52.376;8.990;2022-08-21T17:23:05;3.38;;;1.70;;
6973;SDS011;3527;52.376;8.990;2022-08-21T17:25:54;3.60;;;1.77;;
6973;SDS011;3527;52.376;8.990;2022-08-21T17:28:44;2.78;;;1.63;;
6973;SDS011;3527;52.376;8.990;2022-08-21T17:31:31;2.97;;;1.65;;
6973;SDS011;3527;52.376;8.990;2022-08-21T17:34:20;2.60;;;1.70;;
6973;SDS011;3527;52.376;8.990;2022-08-21T17:37:16;4.35;;;2.03;;
6973;SDS011;3527;52.376;8.990;2022-08-21T17:40:05;4.80;;;1.90;;
6973;SDS011;3527;52.376;8.990;2022-08-21T17:42:58;5.68;;;2.05;;
6973;SDS011;3527;52.376;8.990;2022-08-21T17:45:46;4.05;;;1.60;;
6973;SDS011;3527;52.376;8.990;2022-08-21T17:48:33;5.60;;;1.80;;
6973;SDS011;3527;52.376;8.990;2022-08-21T17:51:24;2.35;;;1.50;;
6973;SDS011;3527;52.376;8.990;2022-08-21T17:54:21;2.80;;;1.83;;
6973;SDS011;3527;52.376;8.990;2022-08-21T17:57:11;5.00;;;1.73;;
6973;SDS011;3527;52.376;8.990;2022-08-21T18:00:11;2.00;;;1.40;;
6973;SDS011;3527;52.376;8.990;2022-08-21T18:03:05;2.55;;;1.50;;
6973;SDS011;3527;52.376;8.990;2022-08-21T18:05:58;2.70;;;1.77;;
6973;SDS011;3527;52.376;8.990;2022-08-21T18:08:47;3.72;;;1.63;;
6973;SDS011;3527;52.376;8.990;2022-08-21T18:11:36;3.57;;;1.70;;
6973;SDS011;3527;52.376;8.990;2022-08-21T18:14:25;3.37;;;1.70;;
6973;SDS011;3527;52.376;8.990;2022-08-21T18:17:17;4.47;;;1.60;;
6973;SDS011;3527;52.376;8.990;2022-08-21T18:20:48;2.70;;;1.43;;
6973;SDS011;3527;52.376;8.990;2022-08-21T18:23:49;2.97;;;1.87;;
6973;SDS011;3527;52.376;8.990;2022-08-21T18:26:38;2.40;;;1.77;;
6973;SDS011;3527;52.376;8.990;2022-08-21T18:29:33;4.17;;;1.70;;
6973;SDS011;3527;52.376;8.990;2022-08-21T18:32:55;4.80;;;1.77;;
6973;SDS011;3527;52.376;8.990;2022-08-21T18:35:43;2.50;;;1.60;;
6973;SDS011;3527;52.376;8.990;2022-08-21T18:38:31;3.20;;;1.87;;
6973;SDS011;3527;52.376;8.990;2022-08-21T18:41:18;3.57;;;1.73;;
6973;SDS011;3527;52.376;8.990;2022-08-21T18:44:06;4.10;;;1.63;;
6973;SDS011;3527;52.376;8.990;2022-08-21T18:46:54;3.37;;;1.93;;
6973;SDS011;3527;52.376;8.990;2022-08-21T18:50:20;2.83;;;1.83;;
6973;SDS011;3527;52.376;8.990;2022-08-21T18:53:23;6.43;;;2.00;;
6973;SDS011;3527;52.376;8.990;2022-08-21T18:56:24;4.23;;;1.90;;
6973;SDS011;3527;52.376;8.990;2022-08-21T18:59:11;2.37;;;1.53;;
6973;SDS011;3527;52.376;8.990;2022-08-21T19:02:00;3.70;;;1.80;;
6973;SDS011;3527;52.376;8.990;2022-08-21T19:04:48;2.30;;;1.60;;
6973;SDS011;3527;52.376;8.990;2022-08-21T19:07:36;3.00;;;1.50;;
6973;SDS011;3527;52.376;8.990;2022-08-21T19:10:24;4.67;;;1.80;;
6973;SDS011;3527;52.376;8.990;2022-08-21T19:13:17;3.23;;;1.97;;
6973;SDS011;3527;52.376;8.990;2022-08-21T19:16:07;2.60;;;2.00;;
6973;SDS011;3527;52.376;8.990;2022-08-21T19:18:55;3.03;;;2.00;;
6973;SDS011;3527;52.376;8.990;2022-08-21T19:21:46;3.40;;;1.77;;